createdAt,value
2022-11-23T00:01:17.708Z,0.61
2022-11-23T00:04:20.473Z,0.65
2022-11-23T00:07:23.423Z,0.61
2022-11-23T00:10:27.992Z,0.73
2022-11-23T00:13:31.307Z,0.86
2022-11-23T00:16:49.178Z,0.94
2022-11-23T00:19:51.763Z,0.87
2022-11-23T00:22:54.157Z,0.54
2022-11-23T00:25:57.022Z,0.63
2022-11-23T00:28:59.797Z,0.69
2022-11-23T00:32:02.831Z,0.56
2022-11-23T00:35:05.669Z,0.63
2022-11-23T00:38:09.781Z,0.54
2022-11-23T00:41:18.085Z,0.69
2022-11-23T00:44:21.171Z,0.48
2022-11-23T00:47:25.654Z,0.56
2022-11-23T00:50:28.544Z,0.65
2022-11-23T00:53:31.802Z,0.76
2022-11-23T00:56:35.695Z,0.48
2022-11-23T00:59:38.132Z,0.26
2022-11-23T01:02:40.636Z,0.74
2022-11-23T01:05:43.507Z,0.24
2022-11-23T01:08:53.922Z,0.40
2022-11-23T01:11:58.930Z,0.64
2022-11-23T01:15:01.704Z,0.70
2022-11-23T01:18:05.288Z,0.67
2022-11-23T01:21:08.327Z,0.40
2022-11-23T01:24:17.257Z,0.51
2022-11-23T01:27:19.750Z,0.58
2022-11-23T01:30:23.372Z,0.42
2022-11-23T01:33:27.553Z,0.82
2022-11-23T01:36:32.265Z,0.90
2022-11-23T01:39:34.782Z,0.78
2022-11-23T01:42:59.831Z,0.65
2022-11-23T01:46:03.940Z,0.68
2022-11-23T01:49:09.427Z,0.56
2022-11-23T01:52:14.545Z,0.62
2022-11-23T01:55:18.118Z,0.64
2022-11-23T01:58:22.527Z,0.48
2022-11-23T02:01:25.482Z,0.57
2022-11-23T02:04:32.980Z,0.78
2022-11-23T02:07:36.159Z,0.70
2022-11-23T02:10:38.905Z,0.33
2022-11-23T02:13:47.098Z,0.61
2022-11-23T02:16:49.785Z,0.59
2022-11-23T02:20:06.351Z,0.56
2022-11-23T02:23:20.694Z,0.73
2022-11-23T02:26:24.084Z,0.56
2022-11-23T02:29:27.211Z,0.65
2022-11-23T02:32:30.063Z,0.61
2022-11-23T02:35:34.428Z,0.62
2022-11-23T02:38:37.490Z,0.60
2022-11-23T02:41:41.864Z,0.53
2022-11-23T02:45:02.955Z,0.32
2022-11-23T02:48:24.626Z,0.56
2022-11-23T02:54:47.680Z,0.42
2022-11-23T02:57:58.017Z,0.47
2022-11-23T03:01:00.783Z,0.71
2022-11-23T03:04:03.221Z,0.67
2022-11-23T03:07:05.787Z,0.75
2022-11-23T03:10:09.358Z,0.61
2022-11-23T03:13:12.030Z,0.41
2022-11-23T03:16:17.379Z,0.51
2022-11-23T03:19:22.857Z,0.56
2022-11-23T03:22:27.186Z,0.56
2022-11-23T03:25:29.955Z,0.24
2022-11-23T03:28:34.352Z,0.37
2022-11-23T03:31:37.022Z,0.40
2022-11-23T03:34:42.456Z,0.30
2022-11-23T03:37:45.166Z,0.68
2022-11-23T03:40:47.730Z,0.68
2022-11-23T03:44:01.821Z,0.48
2022-11-23T03:47:05.598Z,0.41
2022-11-23T03:50:11.013Z,0.39
2022-11-23T03:53:14.042Z,0.20
2022-11-23T03:56:16.825Z,0.40
2022-11-23T03:59:22.182Z,0.34
2022-11-23T04:02:25.271Z,0.36
2022-11-23T04:05:38.536Z,0.53
2022-11-23T04:09:10.248Z,0.65
2022-11-23T04:12:34.346Z,0.48
2022-11-23T04:15:36.749Z,0.53
2022-11-23T04:18:40.233Z,0.63
2022-11-23T04:21:44.093Z,0.79
2022-11-23T04:24:46.599Z,0.54
2022-11-23T04:27:49.234Z,0.65
2022-11-23T04:30:52.078Z,0.74
2022-11-23T04:33:57.057Z,0.65
2022-11-23T04:37:01.677Z,0.72
2022-11-23T04:40:11.039Z,0.59
2022-11-23T04:43:30.346Z,0.52
2022-11-23T04:46:35.842Z,0.62
2022-11-23T04:49:44.351Z,0.38
2022-11-23T04:52:46.939Z,0.53
2022-11-23T04:55:55.728Z,0.43
2022-11-23T04:59:00.725Z,0.45
2022-11-23T05:02:04.058Z,0.53
2022-11-23T05:05:30.800Z,0.73
2022-11-23T05:08:34.251Z,0.70
2022-11-23T05:11:53.290Z,0.60
2022-11-23T05:14:55.880Z,0.72
2022-11-23T05:18:10.927Z,0.50
2022-11-23T05:21:17.906Z,0.79
2022-11-23T05:24:20.555Z,0.85
2022-11-23T05:27:36.247Z,0.64
2022-11-23T05:30:38.583Z,0.78
2022-11-23T05:33:41.316Z,0.51
2022-11-23T05:36:45.176Z,0.50
2022-11-23T05:39:50.119Z,0.61
2022-11-23T05:42:59.844Z,0.88
2022-11-23T05:46:03.055Z,0.54
2022-11-23T05:49:11.424Z,0.67
2022-11-23T05:52:15.392Z,0.51
2022-11-23T05:58:22.830Z,0.77
2022-11-23T06:01:25.573Z,0.89
2022-11-23T06:04:31.495Z,0.88
2022-11-23T06:07:35.499Z,0.66
2022-11-23T06:10:43.164Z,0.73
2022-11-23T06:13:48.790Z,0.61
2022-11-23T06:16:55.273Z,0.55
2022-11-23T06:20:19.245Z,0.60
2022-11-23T06:23:33.014Z,0.53
2022-11-23T06:26:36.866Z,0.66
2022-11-23T06:29:40.377Z,0.62
2022-11-23T06:32:44.226Z,0.46
2022-11-23T06:35:58.896Z,0.55
2022-11-23T06:39:10.948Z,0.30
2022-11-23T06:42:37.876Z,0.68
2022-11-23T06:45:36.549Z,0.59
2022-11-23T06:48:47.412Z,0.55
2022-11-23T06:51:51.321Z,0.53
2022-11-23T06:54:56.645Z,0.53
2022-11-23T06:58:01.227Z,0.34
2022-11-23T07:01:07.747Z,0.23
2022-11-23T07:04:19.219Z,0.46
2022-11-23T07:07:26.055Z,0.61
2022-11-23T07:10:37.392Z,0.74
2022-11-23T07:13:40.374Z,0.64
2022-11-23T07:16:43.589Z,0.80
2022-11-23T07:19:46.462Z,0.69
2022-11-23T07:22:49.627Z,0.72
2022-11-23T07:25:54.062Z,0.87
2022-11-23T07:28:58.022Z,0.78
2022-11-23T07:32:00.818Z,0.77
2022-11-23T07:35:05.365Z,0.50
2022-11-23T07:38:12.021Z,0.92
2022-11-23T07:41:17.175Z,0.95
2022-11-23T07:44:42.984Z,0.76
2022-11-23T07:47:46.530Z,0.87
2022-11-23T07:50:53.280Z,0.83
2022-11-23T07:53:57.512Z,0.73
2022-11-23T07:56:59.982Z,0.89
2022-11-23T08:00:03.845Z,0.50
2022-11-23T08:03:31.132Z,0.80
2022-11-23T08:06:35.130Z,0.64
2022-11-23T08:09:37.831Z,0.67
2022-11-23T08:12:40.978Z,0.50
2022-11-23T08:15:44.892Z,0.63
2022-11-23T08:18:51.075Z,0.64
2022-11-23T08:21:53.806Z,0.55
2022-11-23T08:24:56.585Z,0.72
2022-11-23T08:28:01.526Z,1.08
2022-11-23T08:31:09.089Z,0.91
2022-11-23T08:34:11.754Z,0.90
2022-11-23T08:37:14.403Z,0.95
2022-11-23T08:40:22.032Z,1.09
2022-11-23T08:43:30.287Z,1.06
2022-11-23T08:46:33.309Z,0.97
2022-11-23T08:49:35.754Z,0.93
2022-11-23T08:52:39.841Z,0.92
2022-11-23T08:55:42.580Z,1.07
2022-11-23T08:58:46.389Z,1.06
2022-11-23T09:01:49.160Z,1.08
2022-11-23T09:04:52.211Z,0.99
2022-11-23T09:07:58.359Z,0.69
2022-11-23T09:11:06.915Z,0.86
2022-11-23T09:14:09.508Z,1.26
2022-11-23T09:17:11.882Z,1.03
2022-11-23T09:20:14.637Z,0.84
2022-11-23T09:23:17.308Z,1.16
2022-11-23T09:26:38.476Z,1.17
2022-11-23T09:29:45.076Z,1.17
2022-11-23T09:32:48.799Z,1.27
2022-11-23T09:35:59.250Z,1.32
2022-11-23T09:39:02.041Z,1.38
2022-11-23T09:42:13.846Z,1.23
2022-11-23T09:45:29.680Z,1.19
2022-11-23T09:49:11.532Z,1.31
2022-11-23T09:52:17.968Z,1.35
2022-11-23T09:55:44.681Z,1.06
2022-11-23T09:58:47.726Z,0.80
2022-11-23T10:01:50.943Z,0.85
2022-11-23T10:04:54.874Z,0.74
2022-11-23T10:08:10.237Z,1.28
2022-11-23T10:11:15.597Z,1.30
2022-11-23T10:14:44.393Z,1.24
2022-11-23T10:18:04.961Z,1.32
2022-11-23T10:21:45.178Z,1.02
2022-11-23T10:24:50.999Z,1.03
2022-11-23T10:27:57.960Z,1.30
2022-11-23T10:31:18.690Z,1.44
2022-11-23T10:34:31.156Z,1.23
2022-11-23T10:37:35.597Z,1.16
2022-11-23T10:41:00.414Z,0.97
2022-11-23T10:44:32.863Z,0.74
2022-11-23T10:47:41.587Z,1.03
2022-11-23T10:50:45.503Z,0.98
2022-11-23T10:53:53.788Z,1.03
2022-11-23T10:56:58.789Z,0.84
2022-11-23T11:00:01.684Z,0.71
2022-11-23T11:03:23.689Z,0.75
2022-11-23T11:06:29.393Z,0.85
2022-11-23T11:09:32.412Z,0.46
2022-11-23T11:12:35.821Z,0.46
2022-11-23T11:15:47.211Z,0.66
2022-11-23T11:18:50.311Z,0.73
2022-11-23T11:21:53.005Z,0.76
2022-11-23T11:24:55.683Z,0.85
2022-11-23T11:27:58.928Z,0.82
2022-11-23T11:31:25.903Z,0.90
2022-11-23T11:34:50.338Z,0.91
2022-11-23T11:37:57.238Z,0.92
2022-11-23T11:41:12.674Z,0.86
2022-11-23T11:44:26.102Z,0.95
2022-11-23T11:47:42.825Z,0.98
2022-11-23T11:51:17.505Z,0.66
2022-11-23T11:54:21.063Z,0.74
2022-11-23T11:57:30.649Z,0.73
2022-11-23T12:00:35.631Z,0.96
2022-11-23T12:03:49.571Z,0.69
2022-11-23T12:06:57.360Z,0.69
2022-11-23T12:10:15.209Z,0.73
2022-11-23T12:13:26.938Z,0.87
2022-11-23T12:17:04.101Z,0.65
2022-11-23T12:20:52.122Z,0.63
2022-11-23T12:24:06.917Z,0.88
2022-11-23T12:27:14.957Z,0.99
2022-11-23T12:30:41.188Z,0.91
2022-11-23T12:33:58.911Z,0.92
2022-11-23T12:37:04.372Z,0.90
2022-11-23T12:40:28.589Z,0.84
2022-11-23T12:43:40.550Z,1.21
2022-11-23T12:46:50.004Z,1.14
2022-11-23T12:50:10.434Z,1.10
2022-11-23T12:54:00.884Z,0.75
2022-11-23T12:57:26.107Z,0.84
2022-11-23T13:00:35.231Z,0.76
2022-11-23T13:03:37.699Z,0.85
2022-11-23T13:10:37.339Z,0.77
2022-11-23T13:14:08.355Z,0.90
2022-11-23T13:17:29.060Z,0.89
2022-11-23T13:20:52.945Z,0.68
2022-11-23T13:23:55.927Z,0.65
2022-11-23T13:27:14.095Z,0.84
2022-11-23T13:31:14.436Z,0.81
2022-11-23T13:34:04.407Z,0.77
2022-11-23T13:37:14.327Z,0.92
2022-11-23T13:40:32.417Z,0.42
2022-11-23T13:43:37.838Z,0.45
2022-11-23T13:46:40.634Z,0.35
2022-11-23T13:49:49.171Z,0.41
2022-11-23T13:52:53.859Z,0.28
2022-11-23T13:55:59.636Z,0.37
2022-11-23T13:59:23.910Z,0.41
2022-11-23T14:02:30.240Z,0.31
2022-11-23T14:05:55.740Z,0.21
2022-11-23T14:09:25.836Z,0.14
2022-11-23T14:12:45.775Z,0.18
2022-11-23T14:15:56.633Z,0.48
2022-11-23T14:19:21.074Z,0.25
2022-11-23T14:22:44.844Z,0.43
2022-11-23T14:25:56.796Z,0.32
2022-11-23T14:29:19.581Z,0.47
2022-11-23T14:32:27.314Z,0.61
2022-11-23T14:35:45.745Z,0.47
2022-11-23T14:38:54.603Z,0.29
2022-11-23T14:42:02.946Z,0.46
2022-11-23T14:45:06.331Z,0.41
2022-11-23T14:48:30.559Z,0.26
2022-11-23T14:51:34.928Z,0.63
2022-11-23T14:54:38.015Z,0.51
2022-11-23T14:57:43.641Z,0.60
2022-11-23T15:00:48.404Z,0.30
2022-11-23T15:04:02.093Z,0.37
2022-11-23T15:07:17.025Z,0.34
2022-11-23T15:10:20.076Z,0.38
2022-11-23T15:13:25.884Z,0.41
2022-11-23T15:16:29.182Z,0.40
2022-11-23T15:19:31.647Z,0.31
2022-11-23T15:22:36.957Z,0.31
2022-11-23T15:25:39.370Z,0.49
2022-11-23T15:28:42.272Z,0.33
2022-11-23T15:32:06.962Z,0.50
2022-11-23T15:35:13.323Z,0.45
2022-11-23T15:38:23.223Z,0.40
2022-11-23T15:41:29.418Z,0.42
2022-11-23T15:44:36.106Z,0.37
2022-11-23T15:47:39.063Z,0.45
2022-11-23T15:50:51.629Z,0.05
2022-11-23T15:53:54.868Z,0.30
2022-11-23T15:57:00.881Z,0.28
2022-11-23T16:00:06.042Z,0.20
2022-11-23T16:03:33.404Z,0.08
2022-11-23T16:06:41.123Z,0.18
2022-11-23T16:09:52.137Z,0.25
2022-11-23T16:12:56.964Z,0.28
2022-11-23T16:16:00.911Z,0.30
2022-11-23T16:19:39.455Z,0.32
2022-11-23T16:22:48.959Z,0.19
2022-11-23T16:26:05.961Z,0.19
2022-11-23T16:29:21.515Z,0.06
2022-11-23T16:32:29.024Z,0.03
2022-11-23T16:35:31.889Z,0.09
2022-11-23T16:38:35.296Z,-0.12
2022-11-23T16:41:39.146Z,-0.04
2022-11-23T16:44:42.503Z,-0.00
2022-11-23T16:47:53.024Z,0.09
2022-11-23T16:50:56.976Z,0.14
2022-11-23T16:54:19.061Z,0.49
2022-11-23T16:57:30.061Z,0.60
2022-11-23T17:00:34.012Z,0.42
2022-11-23T17:03:41.403Z,0.39
2022-11-23T17:06:44.853Z,0.31
2022-11-23T17:09:47.411Z,0.10
2022-11-23T17:12:55.063Z,0.05
2022-11-23T17:15:57.864Z,-0.02
2022-11-23T17:19:00.988Z,0.02
2022-11-23T17:22:04.211Z,-0.11
2022-11-23T17:25:14.234Z,-0.07
2022-11-23T17:28:22.508Z,-0.08
2022-11-23T17:31:24.959Z,0.05
2022-11-23T17:34:27.907Z,0.11
2022-11-23T17:37:30.296Z,0.44
2022-11-23T17:40:32.768Z,0.59
2022-11-23T17:43:35.416Z,0.42
2022-11-23T17:46:38.753Z,0.53
2022-11-23T17:49:41.884Z,0.32
2022-11-23T17:52:48.210Z,0.33
2022-11-23T17:55:50.778Z,0.23
2022-11-23T17:58:53.783Z,0.20
2022-11-23T18:01:56.237Z,0.30
2022-11-23T18:04:59.031Z,0.44
2022-11-23T18:08:01.377Z,0.20
2022-11-23T18:11:04.093Z,0.37
2022-11-23T18:14:07.324Z,0.40
2022-11-23T18:17:09.939Z,0.22
2022-11-23T18:20:13.489Z,0.19
2022-11-23T18:23:15.985Z,0.15
2022-11-23T18:26:23.539Z,-0.04
2022-11-23T18:29:27.108Z,-0.22
2022-11-23T18:32:29.956Z,0.21
2022-11-23T18:35:33.231Z,0.24
2022-11-23T18:38:36.183Z,0.19
2022-11-23T18:41:38.891Z,0.13
2022-11-23T18:44:41.307Z,0.06
2022-11-23T18:47:43.702Z,0.02
2022-11-23T18:50:46.218Z,-0.01
2022-11-23T18:53:50.127Z,-0.09
2022-11-23T18:56:52.418Z,-0.02
2022-11-23T18:59:58.257Z,-0.27
2022-11-23T19:03:02.636Z,-0.09
2022-11-23T19:06:05.964Z,-0.51
2022-11-23T19:09:08.528Z,-0.31
2022-11-23T19:12:11.168Z,-0.28
2022-11-23T19:15:14.028Z,-0.12
2022-11-23T19:18:16.391Z,0.03
2022-11-23T19:21:20.927Z,0.11
2022-11-23T19:24:23.741Z,-0.02
2022-11-23T19:27:26.086Z,-0.06
2022-11-23T19:30:28.742Z,-0.30
2022-11-23T19:33:31.244Z,-0.29
2022-11-23T19:36:36.766Z,-0.47
2022-11-23T19:39:39.743Z,-0.47
2022-11-23T19:42:42.998Z,-0.30
2022-11-23T19:45:45.534Z,-0.15
2022-11-23T19:48:48.387Z,-0.37
2022-11-23T19:51:52.877Z,-0.42
2022-11-23T19:54:55.365Z,-0.55
2022-11-23T19:57:58.043Z,-0.43
2022-11-23T20:01:08.656Z,-0.36
2022-11-23T20:04:11.946Z,-0.41
2022-11-23T20:07:14.778Z,-0.44
2022-11-23T20:10:17.837Z,-0.34
2022-11-23T20:13:20.849Z,-0.42
2022-11-23T20:16:24.416Z,-0.60
2022-11-23T20:19:26.800Z,-0.52
2022-11-23T20:22:30.122Z,-0.58
2022-11-23T20:25:35.942Z,-0.42
2022-11-23T20:28:38.397Z,-0.22
2022-11-23T20:31:41.197Z,-0.31
2022-11-23T20:34:44.313Z,-0.06
2022-11-23T20:37:47.127Z,-0.20
2022-11-23T20:40:50.585Z,-0.45
2022-11-23T20:43:58.262Z,-0.77
2022-11-23T20:47:02.189Z,-0.82
2022-11-23T20:50:06.689Z,-0.85
2022-11-23T20:53:09.020Z,-0.81
2022-11-23T20:56:13.901Z,-0.72
2022-11-23T20:59:16.377Z,-0.88
2022-11-23T21:02:18.953Z,-0.75
2022-11-23T21:05:21.993Z,-0.83
2022-11-23T21:08:33.198Z,-0.83
2022-11-23T21:11:57.486Z,-0.74
2022-11-23T21:15:00.160Z,-0.81
2022-11-23T21:18:02.774Z,-0.68
2022-11-23T21:21:05.633Z,-0.59
2022-11-23T21:24:08.705Z,-0.69
2022-11-23T21:27:13.419Z,-0.78
2022-11-23T21:30:16.038Z,-0.93
2022-11-23T21:33:18.904Z,-0.80
2022-11-23T21:36:22.653Z,-1.10
2022-11-23T21:39:25.450Z,-1.03
2022-11-23T21:42:28.728Z,-0.93
2022-11-23T21:45:31.431Z,-0.79
2022-11-23T21:48:34.996Z,-0.60
2022-11-23T21:51:39.116Z,-0.45
2022-11-23T21:54:47.269Z,-0.59
2022-11-23T21:57:51.860Z,-0.47
2022-11-23T22:00:54.198Z,-0.49
2022-11-23T22:07:23.190Z,-0.72
2022-11-23T22:10:26.259Z,-1.05
2022-11-23T22:13:32.755Z,-0.68
2022-11-23T22:16:45.757Z,-0.78
2022-11-23T22:19:48.796Z,-0.73
2022-11-23T22:22:51.760Z,-0.82
2022-11-23T22:25:54.522Z,-0.90
2022-11-23T22:28:58.215Z,-0.86
2022-11-23T22:32:01.472Z,-0.94
2022-11-23T22:35:04.708Z,-0.98
2022-11-23T22:38:07.621Z,-1.01
2022-11-23T22:41:13.385Z,-1.11
2022-11-23T22:44:16.483Z,-1.02
2022-11-23T22:47:19.275Z,-1.05
2022-11-23T22:50:22.774Z,-0.97
2022-11-23T22:53:26.220Z,-1.03
2022-11-23T22:56:30.977Z,-1.04
2022-11-23T22:59:33.962Z,-1.14
2022-11-23T23:02:36.772Z,-1.13
2022-11-23T23:05:39.843Z,-1.05
2022-11-23T23:08:43.055Z,-1.36
2022-11-23T23:11:46.123Z,-1.34
2022-11-23T23:14:49.123Z,-1.43
2022-11-23T23:17:51.903Z,-1.44
2022-11-23T23:21:02.262Z,-1.30
2022-11-23T23:24:06.487Z,-1.19
2022-11-23T23:27:09.330Z,-1.10
2022-11-23T23:30:12.483Z,-1.03
2022-11-23T23:33:15.344Z,-1.21
2022-11-23T23:36:21.387Z,-0.64
2022-11-23T23:39:24.088Z,-0.83
2022-11-23T23:42:27.998Z,-0.91
2022-11-23T23:45:31.684Z,-1.01
2022-11-23T23:48:37.627Z,-1.06
2022-11-23T23:51:41.342Z,-0.73
2022-11-23T23:54:44.022Z,-0.74
2022-11-23T23:57:46.709Z,-0.74
